Terminal Aerodrome Forecast
Issued by NWS

Home | Current Version | Previous Version | Text Only | Print | Product List | Glossary On
Versions: 1 2 3 4 5 6 7 8 9 10 11 12 13 14 15
000
FTUS43 KIND 202300
TAFHUF
TAF
KHUF 202320Z 2100/2124 VRB03KT P6SM OVC060
     FM210400 12002KT P6SM SCT030 BKN060
     FM211200 13003KT 6SM BR OVC030
     FM211600 15005KT P6SM SCT025 BKN070=

USA.gov is the U.S. government's official web portal to all federal, state and local government web resources and services.